Time;durP1;ratioP1;P1;durP2;ratioP2;P2;SDS_P1;SDS_P2;PMS_P1;PMS_P2;Temp;Humidity;BMP_temperature;BMP_pressure;BME280_temperature;BME280_humidity;BME280_pressure;Samples;Min_cycle;Max_cycle;Signal;HPM_P1;HPM_P2
2023/08/25 00:00:43;;;;;;;3.87;3.47;;;18.90;99.90;;;;;;5033276;28;20576;-76
2023/08/25 00:03:09;;;;;;;4.10;3.70;;;18.90;99.90;;;;;;5033062;28;20771;-72
2023/08/25 00:05:38;;;;;;;6.30;4.13;;;18.90;99.90;;;;;;5031645;28;20211;-71
2023/08/25 00:08:04;;;;;;;4.33;3.57;;;18.80;99.90;;;;;;5032745;28;20549;-72
2023/08/25 00:10:29;;;;;;;5.10;4.00;;;18.90;99.90;;;;;;5032700;28;20468;-72
2023/08/25 00:12:55;;;;;;;5.67;3.97;;;18.80;99.90;;;;;;5032558;28;20987;-73
2023/08/25 00:15:21;;;;;;;6.67;4.03;;;18.80;99.90;;;;;;5032195;28;20200;-72
2023/08/25 00:17:46;;;;;;;6.17;4.20;;;18.80;99.90;;;;;;5032641;28;20172;-72
2023/08/25 00:20:12;;;;;;;5.37;4.30;;;18.80;99.90;;;;;;5031542;28;20175;-72
2023/08/25 00:22:41;;;;;;;6.47;4.67;;;18.80;99.90;;;;;;5031912;28;20279;-73
2023/08/25 00:25:07;;;;;;;6.30;3.77;;;18.70;99.90;;;;;;5031818;28;20238;-72
2023/08/25 00:27:33;;;;;;;4.07;3.17;;;18.60;99.90;;;;;;5033049;28;20430;-72
2023/08/25 00:29:58;;;;;;;6.90;3.70;;;18.60;99.90;;;;;;5032862;28;20447;-73
2023/08/25 00:32:24;;;;;;;4.40;3.63;;;18.60;99.90;;;;;;5036183;28;20241;-71
2023/08/25 00:34:49;;;;;;;4.93;4.13;;;18.60;99.90;;;;;;5038671;28;20245;-72
2023/08/25 00:37:15;;;;;;;5.67;4.50;;;18.60;99.90;;;;;;5055991;28;20205;-72
2023/08/25 00:39:40;;;;;;;8.57;3.80;;;18.60;99.90;;;;;;5053564;28;20194;-70
2023/08/25 00:42:06;;;;;;;5.67;4.60;;;18.70;99.90;;;;;;5062540;28;20593;-72
2023/08/25 00:44:31;;;;;;;8.37;4.60;;;18.70;99.90;;;;;;5052030;28;20201;-72
2023/08/25 00:46:58;;;;;;;6.87;5.33;;;18.60;99.90;;;;;;5055943;28;20197;-72
2023/08/25 00:49:24;;;;;;;4.53;3.90;;;18.50;99.90;;;;;;5055956;28;20167;-72
2023/08/25 00:51:52;;;;;;;5.63;4.63;;;18.60;99.90;;;;;;5056260;28;20433;-73
2023/08/25 00:54:20;;;;;;;10.23;5.97;;;18.60;99.90;;;;;;5056189;28;20496;-71
2023/08/25 00:56:49;;;;;;;4.40;4.00;;;18.60;99.90;;;;;;5054792;28;20436;-72
2023/08/25 00:59:15;;;;;;;4.90;3.87;;;18.60;99.90;;;;;;5045166;28;20406;-72
2023/08/25 01:01:41;;;;;;;6.67;4.50;;;18.60;99.90;;;;;;5035906;28;20458;-72
2023/08/25 01:04:07;;;;;;;4.60;4.10;;;18.60;99.90;;;;;;5036315;28;20429;-71
2023/08/25 01:06:33;;;;;;;5.77;4.20;;;18.60;99.90;;;;;;5034209;28;20549;-72
2023/08/25 01:08:59;;;;;;;6.10;4.43;;;18.60;99.90;;;;;;5035703;28;20417;-72
2023/08/25 01:12:13;;;;;;;10.07;5.17;;;18.70;99.90;;;;;;5035729;28;20164;-72
2023/08/25 01:15:04;;;;;;;6.60;3.93;;;18.70;99.90;;;;;;5023139;28;20579;-73
2023/08/25 01:17:57;;;;;;;7.27;4.37;;;18.70;99.90;;;;;;5035235;28;20775;-71
2023/08/25 01:20:24;;;;;;;6.87;4.03;;;18.60;99.90;;;;;;5034510;28;20415;-72
2023/08/25 01:23:02;;;;;;;6.30;3.67;;;18.60;99.90;;;;;;5035033;28;20426;-71
2023/08/25 01:25:31;;;;;;;4.93;3.43;;;18.60;99.90;;;;;;5035178;28;20467;-71
2023/08/25 01:28:02;;;;;;;10.70;3.37;;;18.60;99.90;;;;;;5033827;28;20501;-72
2023/08/25 01:30:30;;;;;;;4.67;3.57;;;18.60;99.90;;;;;;5035490;28;20482;-72
2023/08/25 01:32:56;;;;;;;4.07;2.63;;;18.60;99.90;;;;;;5035406;28;20434;-72
2023/08/25 01:35:46;;;;;;;5.47;2.80;;;18.50;99.90;;;;;;5042664;28;20523;-72
2023/08/25 01:38:12;;;;;;;4.03;2.80;;;18.50;99.90;;;;;;5055490;28;20416;-71
2023/08/25 01:40:47;;;;;;;5.43;3.20;;;18.50;99.90;;;;;;5047412;28;20430;-72
2023/08/25 01:43:16;;;;;;;4.27;3.23;;;18.40;99.90;;;;;;5049059;28;20218;-71
2023/08/25 01:45:42;;;;;;;2.50;2.27;;;18.40;99.90;;;;;;5055893;28;20463;-71
2023/08/25 01:48:09;;;;;;;5.67;3.20;;;18.40;99.90;;;;;;5055375;28;20413;-72
2023/08/25 01:50:36;;;;;;;5.10;2.97;;;18.40;99.90;;;;;;5055796;28;20201;-71
2023/08/25 01:53:03;;;;;;;5.80;2.37;;;18.50;99.90;;;;;;5055912;28;20839;-71
2023/08/25 01:55:29;;;;;;;4.67;2.77;;;18.50;99.90;;;;;;5055304;28;20449;-71
2023/08/25 01:57:54;;;;;;;4.90;2.53;;;18.50;99.90;;;;;;5054295;28;20405;-71
2023/08/25 02:00:20;;;;;;;6.10;2.67;;;18.60;99.90;;;;;;5038656;28;20426;-73
2023/08/25 02:02:45;;;;;;;3.43;2.10;;;18.60;99.90;;;;;;5053489;28;20198;-72
2023/08/25 02:05:11;;;;;;;5.07;2.60;;;18.50;99.90;;;;;;5055615;28;21162;-71
2023/08/25 02:07:37;;;;;;;6.60;2.50;;;18.50;99.90;;;;;;5055723;28;20548;-72
2023/08/25 02:10:03;;;;;;;2.97;2.67;;;18.60;99.90;;;;;;5050523;28;20179;-71
2023/08/25 02:12:28;;;;;;;2.27;2.07;;;18.60;99.90;;;;;;5049684;28;20225;-71
2023/08/25 02:14:54;;;;;;;2.40;2.10;;;18.70;99.90;;;;;;5054884;28;20216;-72
2023/08/25 02:17:19;;;;;;;3.60;2.50;;;18.70;99.90;;;;;;5055737;28;20167;-72
2023/08/25 02:19:45;;;;;;;3.23;2.60;;;18.70;99.90;;;;;;5054821;28;20178;-71
2023/08/25 02:22:10;;;;;;;5.93;3.00;;;18.70;99.90;;;;;;5055479;28;20187;-72
2023/08/25 02:24:36;;;;;;;2.70;2.10;;;18.70;99.90;;;;;;5055472;28;20225;-72
2023/08/25 02:27:01;;;;;;;4.50;1.97;;;18.70;99.90;;;;;;5053784;28;20660;-72
2023/08/25 02:29:27;;;;;;;3.00;2.20;;;18.80;99.90;;;;;;5040363;28;20637;-71
2023/08/25 02:31:52;;;;;;;4.37;3.10;;;18.70;99.90;;;;;;5035484;28;20219;-72
2023/08/25 02:34:18;;;;;;;3.30;2.43;;;18.70;99.90;;;;;;5035368;28;20344;-72
2023/08/25 02:36:44;;;;;;;2.20;2.10;;;18.70;99.90;;;;;;5034839;28;20609;-71
2023/08/25 02:39:09;;;;;;;6.27;2.33;;;18.70;99.90;;;;;;5034561;28;20226;-71
2023/08/25 02:41:35;;;;;;;2.07;1.93;;;18.70;99.90;;;;;;5043201;28;20602;-71
2023/08/25 02:44:00;;;;;;;2.40;2.10;;;18.70;99.90;;;;;;5050014;28;20202;-72
2023/08/25 02:46:26;;;;;;;2.33;2.13;;;18.70;99.90;;;;;;5054365;28;20182;-71
2023/08/25 02:48:51;;;;;;;5.10;2.23;;;18.70;99.90;;;;;;5055113;28;20183;-72
2023/08/25 02:51:17;;;;;;;3.50;2.27;;;18.70;99.90;;;;;;5054678;28;20162;-72
2023/08/25 02:53:42;;;;;;;5.20;2.80;;;18.60;99.90;;;;;;5054644;28;20208;-72
2023/08/25 02:56:08;;;;;;;7.53;2.60;;;18.70;99.90;;;;;;5053723;28;20734;-71
2023/08/25 02:58:33;;;;;;;6.10;3.93;;;18.60;99.90;;;;;;5049980;28;20221;-72
2023/08/25 03:00:58;;;;;;;8.13;3.43;;;18.50;99.90;;;;;;5034520;28;20163;-72
2023/08/25 03:03:26;;;;;;;16.93;12.73;;;18.50;99.90;;;;;;5033736;28;20545;-72
2023/08/25 03:05:51;;;;;;;18.10;9.20;;;18.40;99.90;;;;;;5033626;28;20163;-72
2023/08/25 03:08:20;;;;;;;5.93;3.73;;;18.40;99.90;;;;;;5033674;28;20436;-72
2023/08/25 03:10:45;;;;;;;2.97;2.70;;;18.40;99.90;;;;;;5033815;28;20246;-71
2023/08/25 03:13:11;;;;;;;3.33;2.70;;;18.30;99.90;;;;;;5033508;28;20652;-72
2023/08/25 03:15:36;;;;;;;2.83;2.60;;;18.40;99.90;;;;;;5032146;28;20282;-71
2023/08/25 03:18:02;;;;;;;4.70;3.23;;;18.40;99.90;;;;;;5033778;28;20172;-72
2023/08/25 03:20:27;;;;;;;3.30;3.00;;;18.40;99.90;;;;;;5033461;28;20247;-72
2023/08/25 03:22:54;;;;;;;3.87;3.47;;;18.40;99.90;;;;;;5033513;28;20187;-71
2023/08/25 03:25:19;;;;;;;4.60;2.90;;;18.40;99.90;;;;;;5031690;28;20313;-72
2023/08/25 03:27:45;;;;;;;4.63;3.90;;;18.40;99.90;;;;;;5032403;28;20528;-72
2023/08/25 03:30:11;;;;;;;4.80;3.60;;;18.40;99.90;;;;;;5032972;28;20652;-71
2023/08/25 03:32:37;;;;;;;8.40;5.10;;;18.30;99.90;;;;;;5032463;28;20255;-72
2023/08/25 03:35:03;;;;;;;4.83;3.70;;;18.30;99.90;;;;;;5036323;28;20445;-73
2023/08/25 03:37:29;;;;;;;4.97;4.47;;;18.30;99.90;;;;;;5053069;28;20155;-71
2023/08/25 03:39:54;;;;;;;5.20;4.50;;;18.30;99.90;;;;;;5050535;28;20453;-72
2023/08/25 03:42:20;;;;;;;5.93;4.90;;;18.20;99.90;;;;;;5040681;28;20222;-72
2023/08/25 03:44:47;;;;;;;4.90;4.50;;;18.20;99.90;;;;;;5051579;28;20174;-72
2023/08/25 03:47:12;;;;;;;6.00;5.00;;;18.20;99.90;;;;;;5052077;28;20175;-72
2023/08/25 03:49:38;;;;;;;4.93;4.43;;;18.20;99.90;;;;;;5053296;28;20401;-72
2023/08/25 03:52:05;;;;;;;5.00;4.50;;;18.20;99.90;;;;;;5052612;28;20242;-72
2023/08/25 03:54:31;;;;;;;10.07;5.07;;;18.30;99.90;;;;;;5053726;28;20659;-72
2023/08/25 03:56:58;;;;;;;5.37;4.70;;;18.20;99.90;;;;;;5053746;28;21285;-70
2023/08/25 03:59:23;;;;;;;6.07;4.53;;;18.30;99.90;;;;;;5042434;28;20464;-71
2023/08/25 04:01:49;;;;;;;6.73;6.13;;;18.40;99.90;;;;;;5031658;28;20426;-71
2023/08/25 04:04:14;;;;;;;7.17;6.47;;;18.30;99.90;;;;;;5032335;28;20171;-73
2023/08/25 04:06:41;;;;;;;8.17;6.73;;;18.30;99.90;;;;;;5034635;28;20194;-71
2023/08/25 04:09:07;;;;;;;5.63;5.10;;;18.30;99.90;;;;;;5050569;28;20162;-71
2023/08/25 04:11:32;;;;;;;7.40;4.80;;;18.30;99.90;;;;;;5055030;28;20419;-72
2023/08/25 04:13:58;;;;;;;5.27;4.80;;;18.30;99.90;;;;;;5053790;28;20198;-72
2023/08/25 04:16:23;;;;;;;5.77;4.57;;;18.40;99.90;;;;;;5055167;28;20672;-71
2023/08/25 04:18:49;;;;;;;6.97;4.43;;;18.40;99.90;;;;;;5055336;28;20170;-71
2023/08/25 04:21:14;;;;;;;5.13;4.63;;;18.50;99.90;;;;;;5055156;28;20167;-71
2023/08/25 04:23:40;;;;;;;6.23;4.43;;;18.50;99.90;;;;;;5055246;28;20602;-72
2023/08/25 04:26:05;;;;;;;6.63;4.40;;;18.40;99.90;;;;;;5054955;28;20573;-70
2023/08/25 04:28:31;;;;;;;4.20;3.80;;;18.40;99.90;;;;;;5055185;28;20220;-70
2023/08/25 04:30:56;;;;;;;4.33;3.93;;;18.40;99.90;;;;;;5053944;28;20602;-71
2023/08/25 04:33:22;;;;;;;7.10;3.80;;;18.50;99.90;;;;;;5055076;28;20603;-70
2023/08/25 04:35:47;;;;;;;4.20;3.80;;;18.50;99.90;;;;;;5054748;28;20222;-70
2023/08/25 04:38:13;;;;;;;4.13;3.70;;;18.60;99.90;;;;;;5054984;28;20167;-70
2023/08/25 04:40:39;;;;;;;6.27;4.37;;;18.50;99.90;;;;;;5051432;28;20262;-71
2023/08/25 04:43:05;;;;;;;5.00;4.50;;;18.50;99.90;;;;;;5049767;28;20719;-72
2023/08/25 04:45:31;;;;;;;7.67;5.10;;;18.50;99.90;;;;;;5054768;28;20233;-71
2023/08/25 04:47:56;;;;;;;4.67;4.27;;;18.60;99.90;;;;;;5056379;28;20405;-70
2023/08/25 04:50:22;;;;;;;3.40;3.10;;;18.70;99.90;;;;;;5055134;28;20632;-70
2023/08/25 04:52:47;;;;;;;4.40;4.00;;;18.70;99.90;;;;;;5054764;28;20270;-71
2023/08/25 04:55:13;;;;;;;3.10;2.80;;;18.80;99.90;;;;;;5053396;28;20228;-71
2023/08/25 04:57:41;;;;;;;5.20;3.53;;;18.80;99.90;;;;;;5054760;28;20563;-71
2023/08/25 05:00:08;;;;;;;6.70;5.20;;;18.90;99.90;;;;;;5054889;28;20171;-72
2023/08/25 05:02:34;;;;;;;5.93;5.33;;;18.90;99.90;;;;;;5055179;28;20417;-72
2023/08/25 05:05:01;;;;;;;5.03;4.50;;;18.90;99.90;;;;;;5051410;28;20437;-71
2023/08/25 05:07:27;;;;;;;4.73;4.33;;;19.00;99.90;;;;;;5050377;28;20190;-72
2023/08/25 05:09:53;;;;;;;4.67;4.27;;;19.10;99.90;;;;;;5052701;28;20832;-71
2023/08/25 05:12:19;;;;;;;10.87;5.07;;;19.10;99.90;;;;;;5055199;28;20472;-72
2023/08/25 05:14:44;;;;;;;7.43;6.00;;;19.20;99.90;;;;;;5054740;28;21043;-72
2023/08/25 05:17:10;;;;;;;7.77;6.13;;;19.10;99.90;;;;;;5053936;28;20181;-71
2023/08/25 05:19:36;;;;;;;8.63;7.03;;;19.00;99.90;;;;;;5053926;28;20171;-71
2023/08/25 05:22:01;;;;;;;9.57;6.73;;;19.00;99.90;;;;;;5054209;28;20221;-71
2023/08/25 05:24:28;;;;;;;8.50;5.60;;;19.00;99.90;;;;;;5054696;28;20168;-72
2023/08/25 05:26:54;;;;;;;5.47;4.97;;;19.20;99.90;;;;;;5054693;28;20163;-71
2023/08/25 05:29:25;;;;;;;7.43;6.17;;;19.40;99.90;;;;;;5053726;28;20409;-71
2023/08/25 05:31:51;;;;;;;7.00;6.13;;;19.50;99.90;;;;;;5053413;28;20425;-72
2023/08/25 05:34:16;;;;;;;7.47;6.00;;;19.60;99.90;;;;;;5054444;28;20952;-73
2023/08/25 05:36:42;;;;;;;5.20;4.70;;;19.60;99.90;;;;;;5053608;28;20167;-71
2023/08/25 05:39:08;;;;;;;12.17;5.40;;;19.60;99.90;;;;;;5053715;28;20254;-72
2023/08/25 05:41:34;;;;;;;5.70;5.10;;;19.50;99.90;;;;;;5038069;28;20551;-71
2023/08/25 05:44:01;;;;;;;7.57;5.90;;;19.60;99.90;;;;;;5041994;28;20250;-71
2023/08/25 05:46:28;;;;;;;5.73;5.23;;;19.70;99.90;;;;;;5048877;28;20186;-71
2023/08/25 05:48:54;;;;;;;5.80;5.20;;;19.70;99.90;;;;;;5053349;28;21195;-71
2023/08/25 05:51:19;;;;;;;9.03;6.80;;;19.70;99.90;;;;;;5053553;28;20483;-71
2023/08/25 05:53:45;;;;;;;6.53;5.57;;;19.80;99.90;;;;;;5053704;28;20220;-71
2023/08/25 05:56:10;;;;;;;4.60;4.20;;;20.00;99.90;;;;;;5053339;28;20226;-71
2023/08/25 05:58:36;;;;;;;6.50;4.43;;;20.10;99.90;;;;;;5045412;28;20666;-73
2023/08/25 06:01:01;;;;;;;9.10;4.70;;;20.30;99.90;;;;;;5049362;28;20178;-71
2023/08/25 06:03:27;;;;;;;7.40;4.83;;;20.50;99.90;;;;;;5052606;28;20248;-72
2023/08/25 06:05:53;;;;;;;4.67;4.23;;;20.70;99.90;;;;;;5053876;28;20224;-72
2023/08/25 06:08:20;;;;;;;5.90;5.10;;;20.90;99.90;;;;;;5054922;28;20187;-71
2023/08/25 06:10:46;;;;;;;6.17;5.53;;;21.00;99.90;;;;;;5054372;28;20512;-72
2023/08/25 06:13:12;;;;;;;5.67;4.30;;;21.00;99.90;;;;;;5053352;28;21026;-71
2023/08/25 06:15:38;;;;;;;6.10;5.00;;;21.30;99.90;;;;;;5052798;28;20548;-71
2023/08/25 06:18:03;;;;;;;8.27;5.27;;;21.70;99.90;;;;;;5053083;28;20171;-71
2023/08/25 06:20:32;;;;;;;5.63;5.10;;;22.20;99.90;;;;;;5051544;28;20646;-71
2023/08/25 06:22:58;;;;;;;5.70;5.20;;;23.20;99.90;;;;;;5052609;28;20183;-72
2023/08/25 06:25:24;;;;;;;5.33;4.77;;;23.90;99.90;;;;;;5052785;28;20454;-71
2023/08/25 06:27:49;;;;;;;5.20;4.27;;;24.40;99.90;;;;;;5052796;28;20775;-72
2023/08/25 06:30:17;;;;;;;6.87;4.60;;;25.00;99.90;;;;;;5052845;28;20535;-72
2023/08/25 06:32:43;;;;;;;4.20;3.70;;;24.50;99.90;;;;;;5033677;28;20557;-71
2023/08/25 06:35:11;;;;;;;4.00;3.50;;;24.30;99.90;;;;;;5032340;28;20450;-71
2023/08/25 06:37:37;;;;;;;4.57;3.90;;;24.30;99.90;;;;;;5042499;28;20421;-71
2023/08/25 06:40:05;;;;;;;5.00;4.60;;;24.20;99.90;;;;;;5045113;28;20944;-71
2023/08/25 06:42:31;;;;;;;5.43;4.87;;;24.10;99.90;;;;;;5040588;28;20274;-71
2023/08/25 06:44:56;;;;;;;9.73;4.50;;;23.90;99.90;;;;;;5052608;28;20925;-72
2023/08/25 06:47:22;;;;;;;4.20;3.70;;;23.60;99.90;;;;;;5054522;28;20179;-72
2023/08/25 06:49:47;;;;;;;7.53;5.33;;;23.30;99.90;;;;;;5051943;28;20255;-71
2023/08/25 06:52:13;;;;;;;5.33;4.67;;;23.00;99.90;;;;;;5051683;28;20210;-71
2023/08/25 06:54:38;;;;;;;5.70;5.13;;;23.00;99.90;;;;;;5052525;28;20777;-71
2023/08/25 06:57:04;;;;;;;6.30;5.00;;;23.10;99.90;;;;;;5052197;28;20166;-71
2023/08/25 06:59:29;;;;;;;5.40;4.90;;;23.30;99.90;;;;;;5052434;28;20243;-71
2023/08/25 07:01:55;;;;;;;6.87;5.10;;;23.40;99.90;;;;;;5052244;28;20187;-71
2023/08/25 07:04:20;;;;;;;5.83;4.57;;;23.60;99.90;;;;;;5052392;28;20167;-71
2023/08/25 07:06:46;;;;;;;5.13;4.23;;;24.30;99.90;;;;;;5050588;28;20182;-71
2023/08/25 07:09:13;;;;;;;7.90;4.40;;;24.60;99.90;;;;;;5052291;28;20170;-72
2023/08/25 07:11:38;;;;;;;5.00;3.50;;;24.40;99.90;;;;;;5049715;28;20179;-71
2023/08/25 07:14:04;;;;;;;5.03;4.43;;;24.20;99.90;;;;;;5043795;28;20417;-70
2023/08/25 07:16:30;;;;;;;6.23;4.10;;;23.80;99.90;;;;;;5051667;28;20202;-72
2023/08/25 07:18:55;;;;;;;4.17;3.00;;;23.40;99.90;;;;;;5051925;28;20171;-71
2023/08/25 07:21:21;;;;;;;3.37;3.00;;;23.10;99.90;;;;;;5052014;28;20163;-72
2023/08/25 07:23:47;;;;;;;3.30;3.00;;;23.10;99.90;;;;;;5052003;28;20163;-70
2023/08/25 07:26:13;;;;;;;4.07;3.77;;;23.20;99.90;;;;;;5042931;28;20181;-70
2023/08/25 07:28:38;;;;;;;3.57;2.73;;;23.40;99.90;;;;;;5051212;28;20794;-70
2023/08/25 07:31:04;;;;;;;5.93;2.93;;;23.70;99.90;;;;;;5051861;28;20179;-71
2023/08/25 07:33:30;;;;;;;4.40;2.83;;;24.00;99.90;;;;;;5051834;28;20187;-70
2023/08/25 07:35:57;;;;;;;3.27;2.97;;;24.30;99.90;;;;;;5051483;28;20187;-71
2023/08/25 07:38:23;;;;;;;4.03;2.97;;;24.50;99.90;;;;;;5051869;28;20159;-72
2023/08/25 07:40:49;;;;;;;7.63;3.67;;;24.70;99.90;;;;;;5044824;28;20429;-72
2023/08/25 07:43:14;;;;;;;2.80;2.37;;;24.60;99.90;;;;;;5045289;28;20968;-72
2023/08/25 07:45:40;;;;;;;4.60;2.30;;;24.60;99.90;;;;;;5051370;28;20261;-72
2023/08/25 07:48:06;;;;;;;4.77;3.23;;;24.40;99.90;;;;;;5051785;28;20644;-70
2023/08/25 07:50:32;;;;;;;2.97;2.67;;;24.30;99.90;;;;;;5051656;28;20182;-70
2023/08/25 07:52:58;;;;;;;3.23;2.87;;;24.30;99.90;;;;;;5051527;28;20194;-71
2023/08/25 07:55:24;;;;;;;2.60;2.30;;;24.30;99.90;;;;;;5044283;28;20187;-72
2023/08/25 07:57:51;;;;;;;3.27;2.97;;;24.40;99.90;;;;;;5038307;28;20828;-72
2023/08/25 08:00:18;;;;;;;3.10;2.80;;;24.20;99.90;;;;;;5039183;28;20419;-72
2023/08/25 08:02:44;;;;;;;3.80;3.07;;;24.10;99.90;;;;;;5047996;28;20479;-70
2023/08/25 08:05:10;;;;;;;5.20;4.70;;;23.90;99.90;;;;;;5044595;28;20781;-70
2023/08/25 08:07:37;;;;;;;3.40;2.93;;;23.60;99.90;;;;;;5051308;28;20437;-70
2023/08/25 08:10:03;;;;;;;6.53;3.53;;;23.30;99.90;;;;;;5051413;28;20412;-70
2023/08/25 08:12:30;;;;;;;4.80;2.97;;;23.30;99.90;;;;;;5051552;28;20421;-71
2023/08/25 08:14:56;;;;;;;3.80;3.20;;;23.10;99.90;;;;;;5051303;28;20524;-71
2023/08/25 08:17:21;;;;;;;3.37;3.00;;;23.00;99.90;;;;;;5050102;28;20437;-71
2023/08/25 08:19:48;;;;;;;2.80;2.60;;;22.90;99.90;;;;;;5040037;28;20509;-71
2023/08/25 08:22:13;;;;;;;3.73;3.33;;;22.80;99.90;;;;;;5039590;28;20187;-71
2023/08/25 08:24:41;;;;;;;4.50;3.60;;;22.80;99.90;;;;;;5048601;28;20417;-71
2023/08/25 08:27:07;;;;;;;3.70;3.40;;;22.70;99.90;;;;;;5050955;28;20533;-70
2023/08/25 08:29:33;;;;;;;5.33;3.63;;;22.70;99.90;;;;;;5051405;28;20813;-71
2023/08/25 08:31:58;;;;;;;5.63;4.87;;;22.60;99.90;;;;;;5044044;28;20467;-70
2023/08/25 08:34:24;;;;;;;7.93;4.70;;;22.50;99.90;;;;;;5043474;28;20179;-70
2023/08/25 08:36:50;;;;;;;8.43;6.57;;;22.40;99.90;;;;;;5040922;28;20179;-71
2023/08/25 08:39:16;;;;;;;7.40;4.90;;;22.30;99.90;;;;;;5040810;28;20595;-71
2023/08/25 08:41:44;;;;;;;7.10;5.10;;;22.30;99.90;;;;;;5037429;28;20953;-72
2023/08/25 08:44:11;;;;;;;10.60;6.00;;;22.30;99.90;;;;;;5042481;28;20250;-71
2023/08/25 08:46:40;;;;;;;9.20;6.23;;;22.20;99.90;;;;;;5041548;28;20414;-72
2023/08/25 08:49:06;;;;;;;6.77;6.07;;;22.00;99.90;;;;;;5037757;28;20950;-70
2023/08/25 08:51:33;;;;;;;6.67;6.00;;;21.90;99.90;;;;;;5039492;28;20438;-71
2023/08/25 08:54:02;;;;;;;8.33;5.97;;;22.00;99.90;;;;;;5047021;28;20430;-71
2023/08/25 08:56:28;;;;;;;10.27;6.57;;;22.10;99.90;;;;;;5044636;28;20445;-72
2023/08/25 08:58:53;;;;;;;6.50;5.87;;;22.50;99.90;;;;;;5043923;28;20399;-70
2023/08/25 09:01:19;;;;;;;9.63;5.70;;;23.00;99.90;;;;;;5044191;28;20170;-70
2023/08/25 09:03:47;;;;;;;4.73;4.23;;;24.40;99.90;;;;;;5045508;28;20201;-70
2023/08/25 09:06:13;;;;;;;4.73;3.63;;;25.90;99.90;;;;;;5042993;28;20468;-70
2023/08/25 09:08:39;;;;;;;5.97;3.63;;;28.60;99.90;;;;;;5043768;28;20846;-72
2023/08/25 09:11:05;;;;;;;5.43;3.63;;;31.20;99.90;;;;;;5043275;28;20162;-69
2023/08/25 09:13:35;;;;;;;3.13;2.90;;;33.50;99.90;;;;;;5043025;28;20589;-69
2023/08/25 09:16:11;;;;;;;3.87;3.57;;;35.80;99.90;;;;;;5043266;28;20456;-69
2023/08/25 09:18:38;;;;;;;4.27;3.10;;;35.90;80.30;;;;;;5034273;28;20413;-69
2023/08/25 09:21:15;;;;;;;6.87;3.30;;;34.60;75.50;;;;;;5033491;28;20424;-70
2023/08/25 09:23:55;;;;;;;2.80;2.47;;;33.90;97.40;;;;;;5043521;28;20817;-69
2023/08/25 09:26:22;;;;;;;3.80;2.80;;;34.80;99.90;;;;;;5053667;28;20496;-69
2023/08/25 09:28:48;;;;;;;3.87;3.40;;;34.80;90.50;;;;;;5053940;28;20813;-69
2023/08/25 09:31:26;;;;;;;3.60;3.30;;;35.00;88.20;;;;;;5054043;28;20398;-69
2023/08/25 09:34:02;;;;;;;3.83;3.43;;;35.50;80.00;;;;;;5054024;28;20166;-72
2023/08/25 09:36:28;;;;;;;4.70;4.13;;;34.90;73.00;;;;;;5053829;28;20455;-73
2023/08/25 09:38:53;;;;;;;3.53;3.20;;;33.40;83.00;;;;;;5054025;28;20455;-72
2023/08/25 09:41:26;;;;;;;4.00;3.60;;;32.30;98.90;;;;;;5042849;28;20422;-70
2023/08/25 09:43:59;;;;;;;4.50;4.10;;;31.40;99.90;;;;;;5044480;28;20160;-71
2023/08/25 09:46:28;;;;;;;3.43;3.00;;;30.80;99.90;;;;;;5044887;28;20768;-70
2023/08/25 09:49:00;;;;;;;3.87;3.50;;;30.30;99.90;;;;;;5044096;28;20406;-69
2023/08/25 09:51:37;;;;;;;5.70;4.17;;;29.60;99.90;;;;;;5042693;28;20418;-72
2023/08/25 09:54:14;;;;;;;5.27;4.77;;;29.00;99.90;;;;;;5042011;28;20426;-71
2023/08/25 09:56:42;;;;;;;4.53;4.10;;;28.70;99.90;;;;;;5041952;28;20450;-71
2023/08/25 09:59:10;;;;;;;4.77;4.27;;;28.70;99.90;;;;;;5046237;28;20467;-72
2023/08/25 10:01:38;;;;;;;5.07;3.97;;;28.50;99.90;;;;;;5042377;28;20410;-72
2023/08/25 10:04:05;;;;;;;4.67;3.87;;;28.40;99.90;;;;;;5041516;28;20403;-72
2023/08/25 10:06:32;;;;;;;4.73;4.27;;;28.00;99.90;;;;;;5042760;28;20421;-72
2023/08/25 10:08:59;;;;;;;6.77;5.23;;;27.80;99.90;;;;;;5043830;28;20469;-71
2023/08/25 10:11:40;;;;;;;6.10;4.20;;;27.60;99.90;;;;;;5041070;28;20454;-72
2023/08/25 10:14:08;;;;;;;4.90;3.90;;;27.50;99.90;;;;;;5046620;28;20483;-72
2023/08/25 10:16:38;;;;;;;5.27;4.40;;;27.30;99.90;;;;;;5041514;28;20453;-72
2023/08/25 10:19:05;;;;;;;5.30;4.80;;;27.00;99.90;;;;;;5041893;28;20399;-72
2023/08/25 10:21:35;;;;;;;7.43;4.00;;;26.40;99.90;;;;;;5041523;28;20432;-72
2023/08/25 10:24:01;;;;;;;4.13;3.73;;;26.20;99.90;;;;;;5043753;28;20917;-73
2023/08/25 10:26:27;;;;;;;8.13;4.53;;;25.90;99.90;;;;;;5041998;28;20430;-72
2023/08/25 10:28:53;;;;;;;5.73;4.80;;;25.80;99.90;;;;;;5043402;28;20406;-72
2023/08/25 10:31:19;;;;;;;3.77;3.47;;;25.60;99.90;;;;;;5040140;28;20422;-73
2023/08/25 10:33:46;;;;;;;6.77;3.70;;;25.40;99.90;;;;;;5043406;28;20401;-73
2023/08/25 10:36:22;;;;;;;6.13;4.30;;;25.20;99.90;;;;;;5042308;28;20473;-73
2023/08/25 10:39:00;;;;;;;4.73;4.10;;;24.90;99.90;;;;;;5039065;28;20780;-73
2023/08/25 10:41:27;;;;;;;4.93;4.30;;;24.60;99.90;;;;;;5039974;28;20444;-72
2023/08/25 10:43:54;;;;;;;8.83;4.80;;;24.40;99.90;;;;;;5042666;28;20418;-74
2023/08/25 10:46:22;;;;;;;6.00;5.10;;;24.10;99.90;;;;;;5043609;28;20469;-73
2023/08/25 10:49:01;;;;;;;5.50;4.97;;;23.90;99.90;;;;;;5043490;28;20911;-73
2023/08/25 10:51:27;;;;;;;5.97;5.00;;;23.70;99.90;;;;;;5039126;28;20433;-74
2023/08/25 10:53:54;;;;;;;7.43;5.47;;;23.50;99.90;;;;;;5041279;28;20504;-74
2023/08/25 10:56:21;;;;;;;5.80;5.30;;;23.30;99.90;;;;;;5040939;28;20512;-72
2023/08/25 10:59:06;;;;;;;5.50;5.00;;;23.30;99.90;;;;;;5040976;28;20419;-73
2023/08/25 11:01:38;;;;;;;7.90;5.53;;;23.30;99.90;;;;;;5039802;28;20859;-73
2023/08/25 11:04:10;;;;;;;6.23;5.40;;;23.50;99.90;;;;;;5042699;28;20504;-70
2023/08/25 11:06:36;;;;;;;4.80;4.20;;;23.70;99.90;;;;;;5040259;28;20444;-71
2023/08/25 11:09:01;;;;;;;4.70;4.10;;;23.80;99.90;;;;;;5046656;28;20414;-73
2023/08/25 11:11:29;;;;;;;3.33;3.03;;;23.90;99.90;;;;;;5044779;28;20168;-71
2023/08/25 11:13:56;;;;;;;3.27;2.97;;;23.90;99.90;;;;;;5049259;28;20254;-73
2023/08/25 11:16:21;;;;;;;3.40;3.10;;;23.90;99.90;;;;;;5050849;28;20456;-73
2023/08/25 11:18:47;;;;;;;3.50;3.20;;;24.00;99.90;;;;;;5051947;28;20914;-73
2023/08/25 11:21:14;;;;;;;3.53;3.23;;;24.30;99.90;;;;;;5050862;28;20582;-73
2023/08/25 11:23:44;;;;;;;3.80;3.50;;;24.70;99.90;;;;;;5052013;28;20236;-73
2023/08/25 11:26:17;;;;;;;4.47;2.93;;;24.80;99.90;;;;;;5051633;28;20481;-72
2023/08/25 11:28:47;;;;;;;3.60;3.27;;;25.00;99.90;;;;;;5052096;28;20417;-72
2023/08/25 11:31:13;;;;;;;5.30;3.07;;;25.30;99.90;;;;;;5050403;28;20417;-72
2023/08/25 11:33:38;;;;;;;3.53;3.23;;;25.50;99.90;;;;;;5050724;28;20555;-73
2023/08/25 11:36:05;;;;;;;3.57;2.97;;;25.50;99.90;;;;;;5031618;28;20673;-73
2023/08/25 11:38:31;;;;;;;3.13;2.60;;;25.40;99.90;;;;;;5032148;28;20247;-73
2023/08/25 11:40:57;;;;;;;4.30;3.50;;;25.30;99.90;;;;;;5031434;28;21190;-73
2023/08/25 11:43:36;;;;;;;3.53;3.23;;;25.20;99.90;;;;;;5038587;28;20198;-73
2023/08/25 11:46:05;;;;;;;3.20;2.90;;;25.00;99.90;;;;;;5035409;28;20420;-73
2023/08/25 11:48:33;;;;;;;3.40;3.10;;;24.80;99.90;;;;;;5043819;28;20436;-73
2023/08/25 11:50:59;;;;;;;3.97;3.67;;;24.90;99.90;;;;;;5043475;28;20412;-74
2023/08/25 11:53:24;;;;;;;8.73;3.90;;;24.90;99.90;;;;;;5045158;28;20901;-73
2023/08/25 11:56:01;;;;;;;4.60;3.50;;;25.10;99.90;;;;;;5044362;28;20203;-72
2023/08/25 11:58:30;;;;;;;3.30;3.00;;;25.40;99.90;;;;;;5038351;28;20202;-73
2023/08/25 12:01:10;;;;;;;4.10;3.80;;;25.80;99.90;;;;;;5021843;28;20480;-73
2023/08/25 12:03:37;;;;;;;4.00;3.70;;;25.90;99.90;;;;;;5022684;28;20476;-70
2023/08/25 12:06:07;;;;;;;4.20;3.50;;;26.00;99.90;;;;;;5023178;28;20422;-72
2023/08/25 12:08:37;;;;;;;5.90;4.20;;;26.10;99.90;;;;;;5022115;28;20426;-74
2023/08/25 12:11:05;;;;;;;6.20;4.07;;;26.10;99.90;;;;;;5044088;28;20478;-73
2023/08/25 12:13:35;;;;;;;4.80;3.93;;;25.80;99.90;;;;;;5047684;28;20900;-73
2023/08/25 12:16:02;;;;;;;4.80;4.40;;;25.70;99.90;;;;;;5031320;28;20450;-73
2023/08/25 12:18:35;;;;;;;5.17;4.33;;;25.80;99.90;;;;;;5031664;28;20774;-72
2023/08/25 12:21:06;;;;;;;5.10;4.60;;;25.90;99.90;;;;;;5031677;28;20398;-73
2023/08/25 12:23:36;;;;;;;6.13;4.60;;;26.20;99.90;;;;;;5031948;28;21202;-73
2023/08/25 12:26:04;;;;;;;5.27;4.77;;;26.80;99.90;;;;;;5031399;28;20409;-74
2023/08/25 12:28:30;;;;;;;6.10;4.73;;;27.20;99.90;;;;;;5035572;28;20441;-73
2023/08/25 12:30:56;;;;;;;5.30;4.90;;;27.40;99.90;;;;;;5035325;28;20493;-73
2023/08/25 12:33:21;;;;;;;4.03;3.67;;;28.20;99.90;;;;;;5035345;28;20842;-74
2023/08/25 12:35:48;;;;;;;5.40;5.00;;;28.40;99.90;;;;;;5050243;28;20458;-73
2023/08/25 12:38:14;;;;;;;5.73;4.17;;;28.10;99.90;;;;;;5035225;28;20194;-74
2023/08/25 12:40:40;;;;;;;6.37;4.47;;;27.70;99.90;;;;;;5034428;28;20990;-73
2023/08/25 12:43:05;;;;;;;5.33;4.90;;;27.20;99.90;;;;;;5044482;28;20196;-73
2023/08/25 12:45:31;;;;;;;7.13;4.93;;;26.90;99.90;;;;;;5050968;28;20175;-72